Time;durP1;ratioP1;P1;durP2;ratioP2;P2;SDS_P1;SDS_P2;PMS_P1;PMS_P2;Temp;Humidity;BMP_temperature;BMP_pressure;BME280_temperature;BME280_humidity;BME280_pressure;Samples;Min_cycle;Max_cycle;Signal;HPM_P1;HPM_P2
2021/06/15 00:00:39;;;;;;;5.47;4.70;;;16.50;80.50;;;;;;6275908;28;20485;-58
2021/06/15 00:03:44;;;;;;;6.27;5.23;;;16.40;80.80;;;;;;6276095;28;20566;-57
2021/06/15 00:06:47;;;;;;;4.80;4.23;;;16.20;81.10;;;;;;6275892;28;20492;-58
2021/06/15 00:09:50;;;;;;;7.50;4.97;;;16.30;82.10;;;;;;6275854;28;20485;-58
2021/06/15 00:12:55;;;;;;;6.20;4.70;;;16.20;81.10;;;;;;6275567;28;20981;-57
2021/06/15 00:15:58;;;;;;;5.10;4.70;;;16.20;82.30;;;;;;6275930;28;20532;-59
2021/06/15 00:19:03;;;;;;;5.10;4.60;;;16.20;82.20;;;;;;6275147;28;20481;-58
2021/06/15 00:22:06;;;;;;;7.40;5.23;;;16.20;81.60;;;;;;6275451;28;20823;-58
2021/06/15 00:25:12;;;;;;;7.57;4.80;;;16.20;81.60;;;;;;6275424;28;20470;-59
2021/06/15 00:28:15;;;;;;;7.57;5.30;;;16.10;82.00;;;;;;6275592;28;20478;-57
2021/06/15 00:31:19;;;;;;;6.77;4.90;;;16.10;81.70;;;;;;6275014;28;20800;-57
2021/06/15 00:34:23;;;;;;;5.03;4.43;;;16.00;82.10;;;;;;6275319;28;20788;-57
2021/06/15 00:37:27;;;;;;;6.70;4.33;;;15.90;82.90;;;;;;6274915;28;20469;-58
2021/06/15 00:40:30;;;;;;;5.10;4.60;;;15.90;82.80;;;;;;6274990;28;20477;-58
2021/06/15 00:43:33;;;;;;;8.70;5.47;;;15.90;83.80;;;;;;6265197;28;20939;-57
2021/06/15 00:46:36;;;;;;;5.90;5.30;;;15.90;83.10;;;;;;6274668;28;20473;-58
2021/06/15 00:49:42;;;;;;;6.97;5.17;;;15.90;83.60;;;;;;6274962;28;20453;-57
2021/06/15 00:52:45;;;;;;;4.97;4.53;;;15.80;83.70;;;;;;6275006;28;20438;-57
2021/06/15 00:55:49;;;;;;;6.90;5.90;;;15.80;83.90;;;;;;6274869;28;20786;-57
2021/06/15 00:58:52;;;;;;;5.83;5.20;;;15.80;84.30;;;;;;6274400;28;20471;-57
2021/06/15 01:01:56;;;;;;;4.67;4.27;;;15.80;84.30;;;;;;6274924;28;20472;-59
2021/06/15 01:05:03;;;;;;;5.60;4.97;;;15.70;84.10;;;;;;6274516;28;20803;-57
2021/06/15 01:08:13;;;;;;;5.53;5.03;;;15.70;84.20;;;;;;6274834;28;20484;-57
2021/06/15 01:11:33;;;;;;;5.77;5.17;;;15.70;84.40;;;;;;6274488;28;20481;-57
2021/06/15 01:14:46;;;;;;;6.00;5.50;;;15.60;84.60;;;;;;6274637;28;20489;-58
2021/06/15 01:17:55;;;;;;;4.97;4.47;;;15.50;85.00;;;;;;6274283;28;20486;-59
2021/06/15 01:21:02;;;;;;;7.67;5.60;;;15.50;85.00;;;;;;6274765;28;20812;-59
2021/06/15 01:24:18;;;;;;;6.27;5.63;;;15.50;85.40;;;;;;6274439;28;20481;-58
2021/06/15 01:27:49;;;;;;;5.67;5.13;;;15.40;85.80;;;;;;6274241;28;20469;-58
2021/06/15 01:30:59;;;;;;;8.03;4.90;;;15.30;85.80;;;;;;6274200;28;20458;-58
2021/06/15 01:34:06;;;;;;;5.80;4.80;;;15.30;86.50;;;;;;6273859;28;20466;-58
2021/06/15 01:37:13;;;;;;;5.33;3.97;;;15.30;86.50;;;;;;6273999;28;20811;-58
2021/06/15 01:40:22;;;;;;;7.80;5.20;;;15.20;86.70;;;;;;6273891;28;20470;-59
2021/06/15 01:43:32;;;;;;;6.20;5.60;;;15.20;87.20;;;;;;6274238;28;20812;-58
2021/06/15 01:46:47;;;;;;;6.87;5.40;;;15.20;86.70;;;;;;6265143;28;20465;-58
2021/06/15 01:49:52;;;;;;;7.93;5.37;;;15.10;87.40;;;;;;6274275;28;20458;-58
2021/06/15 01:52:55;;;;;;;4.90;4.30;;;15.20;87.80;;;;;;6273796;28;20472;-58
2021/06/15 01:56:04;;;;;;;6.10;5.50;;;15.10;87.90;;;;;;6277625;28;20469;-58
2021/06/15 01:59:10;;;;;;;6.20;5.00;;;15.10;88.00;;;;;;6278863;28;20511;-58
2021/06/15 02:02:15;;;;;;;5.93;5.23;;;15.20;88.40;;;;;;6279029;28;20485;-58
2021/06/15 02:05:25;;;;;;;5.60;5.00;;;15.10;88.20;;;;;;6278540;28;20466;-59
2021/06/15 02:08:30;;;;;;;6.77;5.77;;;15.10;88.60;;;;;;6279337;28;20471;-58
2021/06/15 02:11:34;;;;;;;7.63;6.00;;;15.10;88.40;;;;;;6278355;28;20474;-58
2021/06/15 02:14:40;;;;;;;6.43;5.80;;;15.00;88.70;;;;;;6278769;28;20466;-58
2021/06/15 02:17:47;;;;;;;6.10;5.60;;;15.00;89.10;;;;;;6278668;28;20968;-58
2021/06/15 02:20:51;;;;;;;6.53;4.80;;;15.00;89.00;;;;;;6278476;28;20490;-58
2021/06/15 02:23:58;;;;;;;5.13;4.70;;;15.00;89.00;;;;;;6278646;28;20469;-58
2021/06/15 02:27:02;;;;;;;7.00;5.80;;;15.00;89.40;;;;;;6278256;28;20481;-58
2021/06/15 02:30:08;;;;;;;8.17;5.77;;;14.90;89.20;;;;;;6278230;28;20478;-58
2021/06/15 02:33:14;;;;;;;7.60;5.97;;;14.90;89.90;;;;;;6278026;28;20993;-58
2021/06/15 02:36:20;;;;;;;6.97;5.40;;;14.80;90.00;;;;;;6277725;28;20934;-57
2021/06/15 02:39:28;;;;;;;6.30;5.70;;;14.80;90.00;;;;;;6278032;28;20488;-57
2021/06/15 02:42:36;;;;;;;5.77;5.17;;;14.80;90.00;;;;;;6277891;28;20978;-58
2021/06/15 02:45:44;;;;;;;6.90;6.20;;;14.70;89.80;;;;;;6277878;28;20489;-58
2021/06/15 02:48:51;;;;;;;7.53;5.43;;;14.70;90.00;;;;;;6277990;28;20556;-58
2021/06/15 02:52:01;;;;;;;6.90;5.60;;;14.70;90.30;;;;;;6273137;28;20474;-57
2021/06/15 02:55:09;;;;;;;6.43;5.23;;;14.70;90.40;;;;;;6277688;28;20772;-59
2021/06/15 02:58:12;;;;;;;9.23;5.20;;;14.70;90.20;;;;;;6277118;28;20474;-58
2021/06/15 03:01:17;;;;;;;8.07;5.07;;;14.70;90.20;;;;;;6277549;28;20493;-57
2021/06/15 03:04:20;;;;;;;6.87;5.77;;;14.80;90.20;;;;;;6277216;28;20474;-57
2021/06/15 03:07:24;;;;;;;6.33;5.73;;;14.80;90.30;;;;;;6277199;28;20489;-57
2021/06/15 03:10:28;;;;;;;5.97;4.80;;;14.80;90.70;;;;;;6276982;28;20481;-58
2021/06/15 03:13:41;;;;;;;8.20;5.60;;;14.80;90.40;;;;;;6252451;28;20451;-58
2021/06/15 03:16:46;;;;;;;5.80;5.20;;;14.90;90.40;;;;;;6252154;28;20462;-58
2021/06/15 03:19:59;;;;;;;5.53;4.60;;;14.80;90.30;;;;;;6252289;28;20885;-57
2021/06/15 03:23:06;;;;;;;6.53;4.83;;;14.70;90.40;;;;;;6252319;28;20490;-57
2021/06/15 03:26:15;;;;;;;6.30;5.10;;;14.70;90.40;;;;;;6252416;28;20471;-58
2021/06/15 03:29:22;;;;;;;5.83;5.33;;;14.70;90.40;;;;;;6252047;28;20483;-58
2021/06/15 03:32:28;;;;;;;5.97;5.37;;;14.60;90.60;;;;;;6252422;28;20486;-58
2021/06/15 03:35:33;;;;;;;7.63;5.23;;;14.70;90.70;;;;;;6251533;28;20783;-59
2021/06/15 03:38:37;;;;;;;5.47;5.00;;;14.60;90.70;;;;;;6251843;28;20821;-58
2021/06/15 03:41:42;;;;;;;6.83;5.53;;;14.70;90.80;;;;;;6251382;28;20487;-58
2021/06/15 03:44:45;;;;;;;7.00;5.57;;;14.70;90.70;;;;;;6251731;28;21037;-58
2021/06/15 03:47:52;;;;;;;6.10;5.60;;;14.70;90.60;;;;;;6251164;28;20475;-59
2021/06/15 03:50:58;;;;;;;5.93;5.33;;;14.70;90.70;;;;;;6251629;28;20996;-58
2021/06/15 03:54:09;;;;;;;5.87;5.30;;;14.70;90.70;;;;;;6251555;28;20478;-59
2021/06/15 03:57:13;;;;;;;12.60;5.40;;;14.70;91.00;;;;;;6251231;28;20485;-59
2021/06/15 04:00:21;;;;;;;8.50;5.20;;;14.70;90.70;;;;;;6251481;28;20470;-58
2021/06/15 04:03:27;;;;;;;8.43;5.23;;;14.70;90.70;;;;;;6251257;28;20816;-59
2021/06/15 04:06:30;;;;;;;6.60;4.90;;;14.70;90.70;;;;;;6250990;28;20490;-58
2021/06/15 04:09:39;;;;;;;6.47;5.33;;;14.80;90.70;;;;;;6250938;28;20466;-58
2021/06/15 04:12:43;;;;;;;9.67;6.13;;;14.80;90.70;;;;;;6251327;28;20474;-59
2021/06/15 04:15:48;;;;;;;6.40;5.80;;;14.90;90.70;;;;;;6250685;28;20485;-58
2021/06/15 04:18:55;;;;;;;7.97;5.47;;;15.00;90.80;;;;;;6250332;28;20471;-61
2021/06/15 04:22:01;;;;;;;6.00;5.40;;;15.20;90.80;;;;;;6250318;28;20965;-61
2021/06/15 04:25:06;;;;;;;7.67;5.47;;;15.30;90.70;;;;;;6250688;28;21003;-58
2021/06/15 04:28:11;;;;;;;5.70;5.20;;;15.40;90.40;;;;;;6250762;28;20818;-63
2021/06/15 04:31:17;;;;;;;5.63;5.10;;;15.50;90.30;;;;;;6250551;28;20976;-58
2021/06/15 04:34:25;;;;;;;6.53;5.40;;;15.60;90.20;;;;;;6250228;28;20463;-62
2021/06/15 04:37:33;;;;;;;7.60;5.13;;;15.70;90.00;;;;;;6250436;28;20486;-58
2021/06/15 04:40:38;;;;;;;5.27;4.77;;;15.90;89.90;;;;;;6250421;28;20455;-58
2021/06/15 04:43:46;;;;;;;6.30;5.70;;;15.90;89.70;;;;;;6250525;28;20464;-63
2021/06/15 04:46:54;;;;;;;8.50;5.73;;;16.10;89.70;;;;;;6249430;28;20788;-61
2021/06/15 04:50:03;;;;;;;11.07;5.73;;;16.20;89.40;;;;;;6250088;28;20978;-61
2021/06/15 04:53:08;;;;;;;6.00;5.40;;;16.30;88.80;;;;;;6249961;28;20478;-60
2021/06/15 04:56:12;;;;;;;10.80;6.73;;;16.40;88.30;;;;;;6250271;28;20481;-61
2021/06/15 04:59:20;;;;;;;6.00;4.77;;;16.60;88.10;;;;;;6240953;28;20494;-61
2021/06/15 05:02:26;;;;;;;7.23;5.60;;;16.70;87.50;;;;;;6249998;28;20832;-58
2021/06/15 05:05:31;;;;;;;10.03;6.00;;;16.90;86.80;;;;;;6249549;28;20478;-60
2021/06/15 05:08:40;;;;;;;7.20;5.50;;;17.00;85.90;;;;;;6249829;28;20486;-61
2021/06/15 05:11:44;;;;;;;6.37;5.50;;;17.10;85.20;;;;;;6249594;28;20987;-61
2021/06/15 05:14:49;;;;;;;7.20;5.27;;;17.30;84.90;;;;;;6249992;28;20470;-58
2021/06/15 05:17:54;;;;;;;6.83;6.13;;;17.40;84.10;;;;;;6249249;28;20482;-58
2021/06/15 05:20:59;;;;;;;7.53;5.73;;;17.50;83.60;;;;;;6249636;28;20482;-58
2021/06/15 05:24:05;;;;;;;6.03;5.03;;;17.60;82.60;;;;;;6249637;28;20773;-61
2021/06/15 05:27:08;;;;;;;5.73;5.07;;;17.80;83.10;;;;;;6249503;28;20819;-61
2021/06/15 05:30:12;;;;;;;11.90;6.43;;;17.90;82.40;;;;;;6248809;28;20475;-62
2021/06/15 05:33:17;;;;;;;8.53;5.40;;;18.10;81.50;;;;;;6249561;28;20463;-64
2021/06/15 05:36:22;;;;;;;6.43;5.67;;;18.20;81.10;;;;;;6249412;28;20475;-61
2021/06/15 05:39:25;;;;;;;7.87;5.57;;;18.40;80.70;;;;;;6249654;28;20466;-61
2021/06/15 05:42:29;;;;;;;5.50;4.90;;;18.50;80.50;;;;;;6248972;28;20491;-64
2021/06/15 05:45:32;;;;;;;8.53;5.60;;;18.60;80.00;;;;;;6248036;28;20462;-63
2021/06/15 05:48:35;;;;;;;9.27;5.50;;;18.70;79.70;;;;;;6248240;28;20479;-64
2021/06/15 05:51:40;;;;;;;7.57;5.90;;;18.90;78.80;;;;;;6248767;28;20232;-61
2021/06/15 05:54:43;;;;;;;5.87;5.37;;;19.00;78.70;;;;;;6249401;28;20489;-62
2021/06/15 05:57:47;;;;;;;8.60;5.63;;;19.10;77.30;;;;;;6248818;28;20579;-61
2021/06/15 06:00:50;;;;;;;8.43;6.33;;;19.20;77.60;;;;;;6249355;28;20574;-62
2021/06/15 06:03:59;;;;;;;9.80;5.93;;;19.50;77.10;;;;;;6244148;28;20622;-62
2021/06/15 06:10:27;;;;;;;7.63;5.90;;;19.90;75.70;;;;;;6248261;28;20571;-61
2021/06/15 06:13:30;;;;;;;6.47;5.87;;;20.20;75.40;;;;;;6248021;28;20231;-61
2021/06/15 06:16:34;;;;;;;10.20;6.67;;;20.70;74.60;;;;;;6247772;28;20290;-61
2021/06/15 06:19:48;;;;;;;14.40;5.67;;;21.50;71.10;;;;;;6248124;28;20205;-61
2021/06/15 06:22:53;;;;;;;7.10;5.50;;;22.00;67.90;;;;;;6248236;28;20232;-61
2021/06/15 06:25:56;;;;;;;10.60;6.20;;;22.40;66.80;;;;;;6249221;28;20225;-61
2021/06/15 06:28:59;;;;;;;8.83;5.90;;;22.70;64.20;;;;;;6248218;28;20256;-62
2021/06/15 06:32:04;;;;;;;7.70;6.20;;;23.10;63.50;;;;;;6248749;28;20565;-62
2021/06/15 06:35:08;;;;;;;9.37;6.13;;;23.30;62.40;;;;;;6248571;28;20229;-63
2021/06/15 06:38:12;;;;;;;9.10;6.20;;;23.70;62.20;;;;;;6248773;28;20313;-63
2021/06/15 06:41:16;;;;;;;8.17;5.90;;;24.40;60.00;;;;;;6250391;28;20673;-62
2021/06/15 06:44:19;;;;;;;8.70;5.37;;;25.00;58.00;;;;;;6253540;28;20243;-63
2021/06/15 06:47:23;;;;;;;8.93;6.43;;;25.40;56.90;;;;;;6253181;28;20243;-63
2021/06/15 06:50:26;;;;;;;8.80;6.10;;;26.00;56.10;;;;;;6252834;28;20730;-62
2021/06/15 06:53:32;;;;;;;7.57;5.73;;;26.80;54.30;;;;;;6253173;28;20224;-63
2021/06/15 06:56:35;;;;;;;6.87;5.27;;;27.40;51.90;;;;;;6252819;28;20349;-62
2021/06/15 06:59:38;;;;;;;7.43;5.33;;;28.00;50.70;;;;;;6253389;28;20223;-62
2021/06/15 07:02:42;;;;;;;8.60;6.13;;;28.50;48.90;;;;;;6252460;28;20224;-61
2021/06/15 07:05:45;;;;;;;8.97;5.00;;;29.10;47.70;;;;;;6252405;28;20572;-62
2021/06/15 07:08:50;;;;;;;6.67;5.43;;;29.20;46.20;;;;;;6252370;28;20227;-62
2021/06/15 07:11:53;;;;;;;6.17;5.37;;;29.90;45.50;;;;;;6252917;28;20680;-62
2021/06/15 07:14:57;;;;;;;6.23;5.00;;;30.70;43.40;;;;;;6252176;28;20274;-62
2021/06/15 07:18:00;;;;;;;5.80;5.20;;;31.20;41.70;;;;;;6252267;28;20318;-62
2021/06/15 07:21:04;;;;;;;8.53;5.37;;;31.30;40.70;;;;;;6251976;28;20231;-61
2021/06/15 07:24:09;;;;;;;5.82;5.22;;;31.60;40.20;;;;;;6252347;28;20242;-61
2021/06/15 07:27:12;;;;;;;7.57;4.50;;;32.00;39.50;;;;;;6252077;28;20242;-61
2021/06/15 07:30:17;;;;;;;6.15;4.93;;;32.20;38.60;;;;;;6251956;28;20228;-63
2021/06/15 07:33:20;;;;;;;5.07;3.92;;;33.00;37.90;;;;;;6252052;28;20223;-61
2021/06/15 07:36:23;;;;;;;4.72;4.32;;;33.60;35.90;;;;;;6251723;28;20231;-61
2021/06/15 07:39:28;;;;;;;5.53;5.03;;;33.40;35.00;;;;;;6252067;28;20228;-62
2021/06/15 07:42:33;;;;;;;4.32;3.92;;;32.90;35.20;;;;;;6251974;28;20236;-62
2021/06/15 07:45:37;;;;;;;5.57;4.97;;;32.40;35.60;;;;;;6251762;28;20257;-62
2021/06/15 07:48:41;;;;;;;5.72;4.97;;;31.90;36.00;;;;;;6251301;28;20236;-62
2021/06/15 07:51:44;;;;;;;5.47;4.47;;;31.50;36.30;;;;;;6250594;28;20239;-62
2021/06/15 07:55:11;;;;;;;5.32;4.82;;;31.30;36.20;;;;;;6252129;28;20238;-62
2021/06/15 07:58:15;;;;;;;5.03;4.47;;;30.80;37.00;;;;;;6251593;28;20677;-62
2021/06/15 08:01:18;;;;;;;7.17;6.07;;;30.20;37.20;;;;;;6251196;28;20235;-61
2021/06/15 08:04:21;;;;;;;6.40;5.13;;;29.60;38.10;;;;;;6235021;28;20223;-63
2021/06/15 08:07:25;;;;;;;9.00;5.27;;;29.30;38.90;;;;;;6235014;28;20228;-63
2021/06/15 08:10:29;;;;;;;5.63;4.83;;;28.80;39.40;;;;;;6246231;28;20716;-63
2021/06/15 08:13:33;;;;;;;6.33;5.50;;;28.30;40.40;;;;;;6249809;28;20558;-62
2021/06/15 08:16:36;;;;;;;5.23;4.67;;;27.80;41.60;;;;;;6249010;28;20235;-62
2021/06/15 08:19:40;;;;;;;6.40;5.10;;;27.30;41.80;;;;;;6251022;28;20235;-62
2021/06/15 08:22:43;;;;;;;6.97;5.50;;;26.80;43.60;;;;;;6227269;28;20204;-61
2021/06/15 08:25:48;;;;;;;5.50;5.00;;;26.90;43.10;;;;;;6227110;28;20231;-63
2021/06/15 08:28:51;;;;;;;4.70;4.23;;;26.80;43.50;;;;;;6250012;28;20539;-61
2021/06/15 08:31:54;;;;;;;7.83;4.53;;;26.60;42.70;;;;;;6250124;28;20230;-62
2021/06/15 08:34:58;;;;;;;7.17;4.67;;;26.20;42.70;;;;;;6250718;28;20227;-65
2021/06/15 08:38:01;;;;;;;5.13;4.50;;;26.00;43.80;;;;;;6250082;28;20227;-65
2021/06/15 08:41:06;;;;;;;6.07;5.30;;;26.10;44.20;;;;;;6250863;28;20223;-64
2021/06/15 08:44:10;;;;;;;9.60;5.07;;;26.20;45.50;;;;;;6249034;28;20219;-65
2021/06/15 08:47:15;;;;;;;8.20;5.40;;;26.50;44.90;;;;;;6249400;28;20223;-61
2021/06/15 08:50:20;;;;;;;7.20;5.17;;;26.80;45.10;;;;;;6251952;28;20693;-63
2021/06/15 08:53:23;;;;;;;9.03;5.70;;;26.80;45.00;;;;;;6257278;28;20227;-62
2021/06/15 08:56:31;;;;;;;9.13;5.10;;;26.90;44.90;;;;;;6266906;28;20238;-61
2021/06/15 08:59:34;;;;;;;6.23;5.63;;;26.60;45.80;;;;;;6225675;28;20761;-62
2021/06/15 09:02:42;;;;;;;7.60;5.30;;;26.40;45.90;;;;;;6227371;28;20238;-63
2021/06/15 09:05:46;;;;;;;7.37;6.17;;;26.10;46.40;;;;;;6249797;28;20243;-62
2021/06/15 09:08:54;;;;;;;7.73;5.60;;;25.90;47.10;;;;;;6249911;28;20246;-63
2021/06/15 09:12:00;;;;;;;6.30;5.27;;;26.00;46.40;;;;;;6249410;28;20240;-64
2021/06/15 09:15:04;;;;;;;5.23;4.73;;;26.20;46.60;;;;;;6218759;28;20239;-61
2021/06/15 09:18:25;;;;;;;10.53;5.77;;;26.30;46.50;;;;;;6223602;28;20240;-62
2021/06/15 09:21:43;;;;;;;6.80;5.70;;;26.60;46.20;;;;;;6225585;28;20228;-65
2021/06/15 09:24:46;;;;;;;6.60;6.00;;;26.90;45.50;;;;;;6248978;28;20235;-63
2021/06/15 09:27:51;;;;;;;6.77;5.70;;;26.90;45.20;;;;;;6266353;28;20234;-62
2021/06/15 09:31:02;;;;;;;9.30;5.00;;;27.00;45.30;;;;;;6274357;28;20235;-64
2021/06/15 09:34:16;;;;;;;10.37;6.37;;;27.00;44.80;;;;;;6273930;28;20720;-64
2021/06/15 09:37:38;;;;;;;7.27;5.30;;;27.00;44.70;;;;;;6274174;28;20257;-64
2021/06/15 09:40:43;;;;;;;8.00;6.00;;;27.00;45.20;;;;;;6262725;28;20234;-63
2021/06/15 09:43:47;;;;;;;8.10;6.07;;;26.70;45.60;;;;;;6249154;28;20204;-64
2021/06/15 09:46:53;;;;;;;6.17;5.60;;;26.80;45.60;;;;;;6248740;28;20242;-63
2021/06/15 09:49:57;;;;;;;6.80;6.00;;;26.90;45.60;;;;;;6249348;28;20227;-62
2021/06/15 09:53:00;;;;;;;5.80;5.17;;;27.00;45.50;;;;;;6248759;28;20238;-62
2021/06/15 09:56:05;;;;;;;5.33;4.83;;;27.10;45.20;;;;;;6253688;28;20233;-62
2021/06/15 09:59:10;;;;;;;6.97;5.90;;;27.10;45.10;;;;;;6273493;28;20258;-66
2021/06/15 10:02:19;;;;;;;6.57;5.90;;;27.20;44.70;;;;;;6273473;28;20707;-63
2021/06/15 10:05:28;;;;;;;7.57;6.00;;;27.30;44.60;;;;;;6273545;28;20567;-64
2021/06/15 10:08:43;;;;;;;6.40;5.33;;;27.30;44.80;;;;;;6273638;28;20242;-66
2021/06/15 10:11:54;;;;;;;6.70;6.10;;;27.30;44.90;;;;;;6273614;28;20235;-63
2021/06/15 10:15:00;;;;;;;8.23;5.50;;;27.20;45.10;;;;;;6273444;28;20672;-66
2021/06/15 10:18:04;;;;;;;6.97;4.63;;;27.30;45.10;;;;;;6278116;28;20691;-63
2021/06/15 10:21:08;;;;;;;7.23;5.20;;;27.40;45.00;;;;;;6278447;28;20241;-64
2021/06/15 10:24:14;;;;;;;6.20;5.57;;;27.40;44.80;;;;;;6278056;28;20579;-64
2021/06/15 10:27:36;;;;;;;7.20;6.20;;;27.20;44.60;;;;;;6276639;28;20250;-62
2021/06/15 10:30:42;;;;;;;6.40;5.67;;;26.60;45.90;;;;;;6277241;28;20235;-60
2021/06/15 10:33:47;;;;;;;6.20;5.60;;;26.70;45.90;;;;;;6278082;28;20703;-60
2021/06/15 10:36:50;;;;;;;6.10;5.20;;;26.70;46.30;;;;;;6277313;28;20231;-61
2021/06/15 10:39:53;;;;;;;6.30;5.70;;;26.80;46.00;;;;;;6277826;28;20238;-61
2021/06/15 10:43:19;;;;;;;5.17;4.77;;;27.00;46.40;;;;;;6277520;28;20245;-62
2021/06/15 10:46:35;;;;;;;8.53;6.00;;;27.10;46.20;;;;;;6276320;28;20223;-62
2021/06/15 10:50:00;;;;;;;6.80;6.20;;;27.10;46.10;;;;;;6276248;28;20216;-63
2021/06/15 10:53:05;;;;;;;8.97;5.33;;;27.20;46.20;;;;;;6273030;28;20567;-64
2021/06/15 10:56:11;;;;;;;6.20;5.60;;;27.40;45.90;;;;;;6257202;28;20234;-63
2021/06/15 10:59:14;;;;;;;6.27;5.67;;;27.30;45.60;;;;;;6277754;28;20567;-64
2021/06/15 11:02:18;;;;;;;9.13;5.80;;;27.10;46.10;;;;;;6277079;28;20225;-62
2021/06/15 11:05:41;;;;;;;7.17;5.37;;;27.10;46.10;;;;;;6277222;28;20566;-63
2021/06/15 11:08:44;;;;;;;6.20;5.60;;;27.10;46.10;;;;;;6267088;28;20250;-64
2021/06/15 11:11:51;;;;;;;6.63;6.03;;;27.30;46.10;;;;;;6252406;28;20238;-63
2021/06/15 11:15:27;;;;;;;6.70;5.70;;;27.20;45.70;;;;;;6263413;28;20227;-64
2021/06/15 11:18:32;;;;;;;6.90;6.20;;;27.50;45.80;;;;;;6259994;28;20267;-65
2021/06/15 11:21:47;;;;;;;7.70;6.13;;;27.40;46.30;;;;;;6252165;28;20683;-64
2021/06/15 11:24:55;;;;;;;5.93;5.43;;;27.60;45.70;;;;;;6243057;28;20238;-63
2021/06/15 11:27:58;;;;;;;5.23;4.70;;;27.70;45.40;;;;;;6251397;28;20242;-63
2021/06/15 11:31:34;;;;;;;6.40;5.80;;;27.80;45.30;;;;;;6251736;28;20236;-63
2021/06/15 11:34:38;;;;;;;6.77;5.63;;;27.80;46.00;;;;;;6251845;28;20223;-64
2021/06/15 11:37:50;;;;;;;5.03;4.63;;;27.70;45.80;;;;;;6260036;28;20219;-63
2021/06/15 11:40:53;;;;;;;6.47;5.87;;;27.60;45.50;;;;;;6276545;28;20223;-65
2021/06/15 11:43:57;;;;;;;6.17;5.17;;;27.60;45.50;;;;;;6275832;28;20672;-64
2021/06/15 11:47:23;;;;;;;7.53;5.70;;;27.70;45.80;;;;;;6276432;28;20284;-64
2021/06/15 11:50:29;;;;;;;7.67;5.80;;;28.00;45.50;;;;;;6276088;28;20684;-63
2021/06/15 11:53:36;;;;;;;7.53;4.80;;;28.00;45.50;;;;;;6276331;28;20583;-62
2021/06/15 11:56:40;;;;;;;5.93;5.43;;;28.00;45.20;;;;;;6276135;28;20231;-61
2021/06/15 11:59:43;;;;;;;5.20;4.80;;;27.90;45.40;;;;;;6275954;28;20226;-63
2021/06/15 12:02:46;;;;;;;7.17;4.93;;;28.00;45.80;;;;;;6276081;28;20249;-64
2021/06/15 12:05:52;;;;;;;6.20;5.53;;;27.90;45.50;;;;;;6275703;28;20234;-63
2021/06/15 12:09:04;;;;;;;6.10;4.97;;;28.00;45.20;;;;;;6275568;28;20238;-66
2021/06/15 12:12:08;;;;;;;5.57;5.10;;;28.10;45.50;;;;;;6275955;28;20242;-62
2021/06/15 12:15:24;;;;;;;6.10;4.70;;;28.10;45.10;;;;;;6275500;28;20238;-62
2021/06/15 12:18:34;;;;;;;5.97;5.23;;;28.30;45.00;;;;;;6275494;28;20250;-63
2021/06/15 12:21:39;;;;;;;5.47;5.00;;;28.40;45.30;;;;;;6275428;28;20234;-62
2021/06/15 12:24:45;;;;;;;6.00;5.30;;;28.70;44.80;;;;;;6275382;28;20310;-63
2021/06/15 12:27:48;;;;;;;6.10;5.43;;;28.60;44.80;;;;;;6270452;28;20700;-63
2021/06/15 12:31:10;;;;;;;7.27;5.37;;;28.30;44.20;;;;;;6275702;28;20249;-65
2021/06/15 12:34:16;;;;;;;6.20;5.60;;;28.10;45.40;;;;;;6274918;28;20564;-64
2021/06/15 12:37:22;;;;;;;6.60;5.77;;;28.10;45.20;;;;;;6275266;28;20281;-64
2021/06/15 12:40:26;;;;;;;7.63;4.70;;;28.20;45.50;;;;;;6274456;28;20583;-64
2021/06/15 12:43:30;;;;;;;5.90;5.40;;;28.30;45.50;;;;;;6275508;28;20245;-63
2021/06/15 12:46:34;;;;;;;5.17;4.67;;;28.40;45.40;;;;;;6274363;28;20242;-62
2021/06/15 12:49:39;;;;;;;10.80;5.50;;;28.40;45.20;;;;;;6274873;28;20550;-65
2021/06/15 12:52:44;;;;;;;6.97;5.10;;;28.20;45.20;;;;;;6273311;28;20587;-62
2021/06/15 12:55:47;;;;;;;5.40;4.90;;;28.30;45.40;;;;;;6251102;28;20200;-65
2021/06/15 12:58:53;;;;;;;5.07;4.60;;;28.50;45.20;;;;;;6249725;28;20685;-64
2021/06/15 13:01:56;;;;;;;5.90;5.30;;;28.60;44.50;;;;;;6250684;28;20238;-64
2021/06/15 13:05:09;;;;;;;6.90;5.53;;;28.60;44.70;;;;;;6249346;28;20358;-64
2021/06/15 13:08:14;;;;;;;5.63;5.13;;;28.70;44.70;;;;;;6246729;28;20340;-65
2021/06/15 13:11:20;;;;;;;5.60;5.10;;;28.60;45.10;;;;;;6250013;28;20230;-64
2021/06/15 13:14:25;;;;;;;4.80;4.40;;;28.60;44.80;;;;;;6249907;28;20230;-62
2021/06/15 13:17:30;;;;;;;6.53;5.70;;;28.60;44.50;;;;;;6248149;28;20231;-62
2021/06/15 13:20:57;;;;;;;6.23;5.50;;;28.70;44.40;;;;;;6249420;28;20732;-62
2021/06/15 13:24:10;;;;;;;7.80;5.70;;;28.50;44.40;;;;;;6249236;28;20665;-62
2021/06/15 13:27:26;;;;;;;6.50;4.70;;;28.40;44.30;;;;;;6249233;28;20239;-63
2021/06/15 13:30:35;;;;;;;7.50;5.43;;;28.60;44.50;;;;;;6249197;28;20235;-63
2021/06/15 13:33:38;;;;;;;5.93;5.43;;;28.60;44.30;;;;;;6240051;28;20563;-63
2021/06/15 13:36:41;;;;;;;6.47;5.93;;;28.50;44.40;;;;;;6248309;28;20852;-62
2021/06/15 13:39:47;;;;;;;6.17;5.60;;;28.50;44.40;;;;;;6249007;28;20247;-62
2021/06/15 13:42:54;;;;;;;5.77;5.10;;;28.50;44.40;;;;;;6248773;28;20239;-62
2021/06/15 13:45:59;;;;;;;5.37;4.97;;;28.50;44.40;;;;;;6249007;28;20231;-63
2021/06/15 13:49:15;;;;;;;7.90;6.00;;;28.20;44.80;;;;;;6249298;28;20703;-62
2021/06/15 13:52:19;;;;;;;8.20;5.70;;;28.30;45.40;;;;;;6254251;28;20588;-64
2021/06/15 13:55:23;;;;;;;5.93;5.13;;;28.30;45.40;;;;;;6254177;28;20227;-62
2021/06/15 13:58:27;;;;;;;6.27;5.77;;;28.40;44.90;;;;;;6254153;28;20243;-62
2021/06/15 14:01:35;;;;;;;5.43;4.63;;;28.50;45.10;;;;;;6253789;28;20238;-64
2021/06/15 14:04:38;;;;;;;6.87;6.17;;;28.40;44.80;;;;;;6252695;28;20566;-62
2021/06/15 14:07:42;;;;;;;5.63;5.20;;;28.60;44.80;;;;;;6253683;28;20541;-62
2021/06/15 14:10:47;;;;;;;6.40;5.90;;;28.50;44.40;;;;;;6254344;28;20211;-64
2021/06/15 14:13:50;;;;;;;5.73;5.10;;;28.40;44.50;;;;;;6253967;28;20202;-64
2021/06/15 14:16:54;;;;;;;6.43;5.73;;;28.40;45.20;;;;;;6253995;28;20227;-64
2021/06/15 14:19:57;;;;;;;5.17;4.80;;;28.30;44.80;;;;;;6253977;28;20306;-65
2021/06/15 14:23:01;;;;;;;5.93;5.40;;;28.30;44.90;;;;;;6254044;28;20670;-65
2021/06/15 14:26:08;;;;;;;6.30;5.27;;;28.30;45.20;;;;;;6253516;28;20228;-64
2021/06/15 14:29:11;;;;;;;5.93;5.43;;;28.40;45.10;;;;;;6253916;28;20333;-63
2021/06/15 14:32:15;;;;;;;6.87;5.70;;;28.40;44.40;;;;;;6254301;28;20238;-66
2021/06/15 14:35:19;;;;;;;8.23;6.07;;;28.40;44.70;;;;;;6244919;28;20389;-64
2021/06/15 14:38:23;;;;;;;6.47;5.87;;;28.40;44.80;;;;;;6253511;28;20586;-62
2021/06/15 14:41:27;;;;;;;6.63;5.50;;;28.60;45.10;;;;;;6253891;28;20227;-63
2021/06/15 14:44:30;;;;;;;5.40;4.90;;;28.70;44.50;;;;;;6253243;28;20291;-64
2021/06/15 14:47:35;;;;;;;6.80;6.20;;;28.70;44.60;;;;;;6253236;28;20234;-66
2021/06/15 14:50:38;;;;;;;7.77;5.57;;;28.60;44.70;;;;;;6252935;28;20570;-62
2021/06/15 14:53:42;;;;;;;6.30;5.77;;;28.30;45.40;;;;;;6253459;28;20223;-63
2021/06/15 14:56:47;;;;;;;6.00;5.40;;;28.40;45.20;;;;;;6252612;28;20293;-63
2021/06/15 14:59:50;;;;;;;5.90;5.40;;;28.60;45.10;;;;;;6252830;28;20234;-64
2021/06/15 15:02:53;;;;;;;6.20;5.57;;;28.40;45.40;;;;;;6252130;28;20250;-63
2021/06/15 15:05:57;;;;;;;6.07;5.30;;;28.30;45.40;;;;;;6251847;28;20223;-63
2021/06/15 15:09:08;;;;;;;6.47;5.83;;;28.20;45.20;;;;;;6249441;28;20281;-63
2021/06/15 15:12:13;;;;;;;6.47;5.13;;;28.20;45.90;;;;;;6251814;28;20709;-64
2021/06/15 15:15:17;;;;;;;7.00;5.70;;;28.30;46.00;;;;;;6252621;28;20697;-63
2021/06/15 15:18:20;;;;;;;7.60;6.23;;;28.50;45.40;;;;;;6251975;28;20397;-65
2021/06/15 15:21:25;;;;;;;6.13;5.57;;;28.50;45.40;;;;;;6252378;28;20229;-63
2021/06/15 15:24:29;;;;;;;7.20;5.80;;;28.50;45.60;;;;;;6252682;28;20228;-62
2021/06/15 15:27:34;;;;;;;6.83;6.10;;;28.60;45.50;;;;;;6252018;28;20559;-65
2021/06/15 15:30:37;;;;;;;6.20;5.60;;;28.70;45.30;;;;;;6251752;28;20701;-63
2021/06/15 15:33:40;;;;;;;6.60;6.10;;;28.40;45.20;;;;;;6251989;28;20233;-64
2021/06/15 15:36:44;;;;;;;5.90;5.50;;;28.30;45.60;;;;;;6251808;28;20231;-64
2021/06/15 15:39:49;;;;;;;6.27;5.77;;;28.30;45.80;;;;;;6247382;28;20223;-65
2021/06/15 15:42:55;;;;;;;6.40;5.90;;;28.30;46.50;;;;;;6251644;28;20232;-64
2021/06/15 15:45:59;;;;;;;6.93;5.40;;;28.40;45.90;;;;;;6251194;28;20689;-63
2021/06/15 15:49:06;;;;;;;5.57;5.17;;;28.30;46.30;;;;;;6250721;28;20234;-63
2021/06/15 15:52:10;;;;;;;5.80;5.20;;;28.30;46.30;;;;;;6251066;28;20230;-64
2021/06/15 15:55:13;;;;;;;6.63;5.77;;;28.20;46.30;;;;;;6251505;28;20242;-63
2021/06/15 15:58:18;;;;;;;6.33;5.60;;;28.20;46.30;;;;;;6251050;28;20723;-66
2021/06/15 16:01:21;;;;;;;6.17;5.77;;;28.10;46.50;;;;;;6251280;28;20238;-64
2021/06/15 16:04:25;;;;;;;6.20;5.60;;;28.10;46.60;;;;;;6251144;28;20353;-61
2021/06/15 16:07:28;;;;;;;6.30;5.80;;;28.10;46.90;;;;;;6250837;28;20250;-65
2021/06/15 16:10:31;;;;;;;6.83;6.17;;;27.80;46.70;;;;;;6251012;28;20224;-65